CW0288 Weather Reports


Display with metric or nautical units.
time (UTC)temp
F
wind
direction
speed
MPH
gust
MPH
rain 1hr
in
rain 24hr
in
rain mn
in
humidity
%
barometer
mb
20191020065747 35 250 3.0 3.0 0.00 0.00 0.00 90 1006.9
20191020064747 35 250 3.0 5.0 0.00 0.00 0.00 89 1006.8
20191020063747 36 241 5.0 6.0 0.00 0.00 0.00 88 1006.9
20191020062747 36 234 5.0 7.0 0.00 0.00 0.00 88 1006.8
20191020061746 36 226 4.0 6.0 0.00 0.00 0.00 86 1006.8
20191020060746 38 226 2.0 3.0 0.00 0.00 0.00 82 1006.7
20191020055746 38 229 2.0 3.0 0.00 0.00 0.00 82 1006.7
20191020054746 38 245 3.0 3.0 0.00 0.00 0.00 82 1006.8
20191020053746 38 246 3.0 5.0 0.00 0.00 0.00 82 1006.8
20191020052750 39 247 4.0 6.0 0.00 0.00 0.00 80 1006.8
20191020051746 38 242 5.0 6.0 0.00 0.00 0.00 84 1006.8
20191020050746 37 242 5.0 5.0 0.00 0.00 0.00 87 1006.7
20191020045746 38 240 3.0 5.0 0.00 0.00 0.00 84 1006.7
20191020044746 39 233 3.0 5.0 0.00 0.00 0.00 78 1006.7
20191020043746 40 229 5.0 5.0 0.00 0.00 0.00 77 1006.7
20191020042746 40 230 5.0 5.0 0.00 0.00 0.00 78 1006.7
20191020041745 40 234 4.0 5.0 0.00 0.00 0.00 80 1006.6
20191020040749 40 235 3.0 5.0 0.00 0.00 0.00 78 1006.5
20191020035746 39 237 4.0 5.0 0.00 0.00 0.00 81 1006.4
20191020034746 40 230 3.0 5.0 0.00 0.00 0.00 76 1006.4
20191020033746 41 225 5.0 6.0 0.00 0.00 0.00 75 1006.4
20191020032746 41 220 5.0 6.0 0.00 0.00 0.00 75 1006.5
20191020031745 40 221 5.0 5.0 0.00 0.00 0.00 78 1006.5
20191020030745 41 229 3.0 3.0 0.00 0.00 0.00 78 1006.4
20191020025746 42 225 3.0 5.0 0.00 0.00 0.00 70 1006.2
20191020024746 43 228 4.0 5.0 0.00 0.00 0.00 71 1006.2
20191020023846 43 226 5.0 5.0 0.00 0.00 0.00 70 1006.2
20191020022846 43 232 5.0 6.0 0.00 0.00 0.00 70 1006.3
20191020021846 44 246 3.0 5.0 0.00 0.00 0.00 70 1006.2
20191020020846 45 252 3.0 3.0 0.00 0.00 0.00 64 1006.2
20191020015849 46 255 3.0 3.0 0.00 0.00 0.00 62 1006.0
20191020014845 46 264 3.0 5.0 0.00 0.00 0.00 61 1006.0
20191020013846 46 262 5.0 7.0 0.00 0.00 0.00 61 1006.0
20191020012845 47 278 5.0 7.0 0.00 0.00 0.00 60 1006.0
20191020011849 47 275 5.0 8.0 0.00 0.00 0.00 60 1005.9
20191020010845 48 268 5.0 9.0 0.00 0.00 0.00 59 1005.8
20191020005845 49 264 5.0 6.0 0.00 0.00 0.00 56 1005.7
20191020004845 49 263 5.0 7.0 0.00 0.00 0.00 56 1005.7
20191020003845 49 261 5.0 7.0 0.00 0.00 0.00 57 1005.6
20191020002845 49 272 5.0 8.0 0.00 0.00 0.00 57 1005.5
20191020001845 49 287 6.0 10.0 0.00 0.00 0.00 57 1005.3
20191020000846 50 271 6.0 10.0 0.00 0.00 0.00 56 1005.2
20191019235845 50 265 6.0 10.0 0.00 0.00 0.00 57 1005.0
20191019234846 51 267 7.0 12.0 0.00 0.00 0.00 58 1004.9
20191019233845 51 268 6.0 10.0 0.00 0.00 0.00 57 1004.8
20191019232845 52 271 6.0 9.0 0.00 0.00 0.00 55 1004.7
20191019231845 53 273 6.0 10.0 0.00 0.00 0.00 55 1004.6
20191019230845 53 279 7.0 12.0 0.00 0.00 0.00 54 1004.6
20191019225846 54 277 6.0 12.0 0.00 0.00 0.00 54 1004.5
20191019224845 55 262 6.0 13.0 0.00 0.00 0.00 53 1004.4
20191019223845 55 291 7.0 16.0 0.00 0.00 0.00 53 1004.4
20191019222845 56 269 9.0 18.0 0.00 0.00 0.00 52 1004.3
20191019221845 57 279 7.0 18.0 0.00 0.00 0.00 52 1004.2
20191019220845 57 283 12.0 20.0 0.00 0.00 0.00 51 1004.1
20191019215845 59 250 14.0 22.0 0.00 0.00 0.00 45 1004.0
20191019214844 60 263 14.0 24.0 0.00 0.00 0.00 44 1003.9
20191019213844 61 275 11.0 18.0 0.00 0.00 0.00 44 1003.7
20191019212845 62 261 11.0 18.0 0.00 0.00 0.00 43 1003.7
20191019211845 62 243 13.0 23.0 0.00 0.00 0.00 41 1003.7
20191019210845 63 280 9.0 18.0 0.00 0.00 0.00 43 1003.6
20191019205845 63 273 12.0 20.0 0.00 0.00 0.00 43 1003.6
20191019204844 64 267 11.0 20.0 0.00 0.00 0.00 44 1003.5
20191019203844 63 283 10.0 20.0 0.00 0.00 0.00 40 1003.5
20191019202844 64 278 13.0 20.0 0.00 0.00 0.00 39 1003.5
20191019201845 64 286 7.0 20.0 0.00 0.00 0.00 40 1003.5
20191019200844 65 255 14.0 21.0 0.00 0.00 0.00 38 1003.5
20191019195844 65 275 14.0 20.0 0.00 0.00 0.00 40 1003.4
20191019194844 64 268 10.0 20.0 0.00 0.00 0.00 42 1003.4
20191019193844 65 283 12.0 22.0 0.00 0.00 0.00 45 1003.5
20191019192847 65 284 13.0 21.0 0.00 0.00 0.00 41 1003.6
20191019191844 65 264 12.0 20.0 0.00 0.00 0.00 44 1003.6
20191019190844 65 243 12.0 20.0 0.00 0.00 0.00 46 1003.7
20191019185844 65 296 13.0 20.0 0.00 0.00 0.00 48 1003.8
20191019184844 64 292 11.0 18.0 0.00 0.00 0.00 50 1003.8
20191019183844 64 284 10.0 16.0 0.00 0.00 0.00 47 1004.0
20191019182844 63 265 9.0 17.0 0.00 0.00 0.00 52 1004.0
20191019181847 63 284 9.0 14.0 0.00 0.00 0.00 54 1004.2
20191019180844 62 249 6.0 13.0 0.00 0.00 0.00 52 1004.4
20191019175844 62 261 10.0 14.0 0.00 0.00 0.00 53 1004.5
20191019174844 62 271 6.0 13.0 0.00 0.00 0.00 57 1004.6
20191019173844 61 259 7.0 13.0 0.00 0.00 0.00 60 1004.6
20191019172844 61 274 5.0 14.0 0.00 0.00 0.00 60 1004.7
20191019171844 60 261 7.0 12.0 0.00 0.00 0.00 63 1004.8
20191019170844 59 258 8.0 14.0 0.00 0.00 0.00 60 1004.9
20191019165843 59 292 6.0 12.0 0.00 0.00 0.00 69 1004.9
20191019164844 58 256 5.0 12.0 0.00 0.00 0.00 67 1004.8
20191019163843 57 248 7.0 12.0 0.00 0.00 0.00 66 1004.7
20191019162844 56 253 5.0 12.0 0.00 0.00 0.00 68 1004.6
20191019161843 55 244 6.0 12.0 0.00 0.00 0.00 72 1004.6
20191019160843 55 242 6.0 13.0 0.00 0.00 0.00 75 1004.6
20191019155843 53 251 9.0 12.0 0.00 0.00 0.00 76 1004.6
20191019154843 52 243 5.0 10.0 0.00 0.00 0.00 78 1004.5
20191019153843 52 248 5.0 9.0 0.00 0.00 0.00 79 1004.4
20191019152846 52 246 5.0 10.0 0.00 0.00 0.00 80 1004.4
20191019151843 51 238 4.0 10.0 0.00 0.00 0.00 82 1004.4
20191019150843 50 265 5.0 10.0 0.00 0.00 0.00 82 1004.4
20191019145843 50 246 7.0 9.0 0.00 0.00 0.00 84 1004.5
20191019144843 49 254 7.0 9.0 0.00 0.00 0.00 86 1004.5
20191019143843 48 245 5.0 12.0 0.00 0.00 0.00 87 1004.5
20191019142844 48 234 6.0 12.0 0.00 0.00 0.00 88 1004.3
20191019141843 48 238 6.0 10.0 0.00 0.00 0.00 88 1004.3
20191019140843 47 249 5.0 10.0 0.00 0.00 0.00 89 1004.2
20191019135843 47 262 5.0 12.0 0.00 0.00 0.00 90 1004.0
20191019134843 46 256 6.0 9.0 0.00 0.00 0.00 91 1003.9
20191019133843 46 265 5.0 7.0 0.00 0.00 0.00 90 1003.6
20191019132843 46 241 6.0 8.0 0.00 0.00 0.00 91 1003.6
20191019131842 46 273 5.0 7.0 0.00 0.00 0.00 91 1003.6
20191019130842 46 257 4.0 8.0 0.00 0.00 0.00 91 1003.6
20191019125842 46 251 4.0 8.0 0.00 0.00 0.00 91 1003.5
20191019124842 46 242 5.0 6.0 0.00 0.00 0.00 91 1003.6
20191019123842 46 246 4.0 6.0 0.00 0.00 0.00 90 1003.5
20191019122842 47 258 3.0 7.0 0.00 0.00 0.00 90 1003.3
20191019121842 47 267 3.0 7.0 0.00 0.00 0.00 91 1003.2
20191019120845 47 261 3.0 6.0 0.00 0.00 0.00 90 1003.2
20191019115841 47 254 3.0 7.0 0.00 0.00 0.00 91 1003.3
20191019114843 47 262 3.0 7.0 0.00 0.00 0.00 91 1003.4
20191019113842 47 263 3.0 7.0 0.00 0.00 0.00 91 1003.4
20191019112842 47 264 5.0 8.0 0.00 0.00 0.00 92 1003.4
20191019111842 47 269 5.0 7.0 0.00 0.00 0.00 92 1003.1
20191019110841 47 266 3.0 6.0 0.00 0.00 0.00 92 1002.9
20191019105842 47 248 3.0 7.0 0.00 0.00 0.00 92 1003.1
20191019104841 47 246 5.0 7.0 0.00 0.00 0.00 91 1003.2
20191019103842 47 240 5.0 7.0 0.00 0.00 0.00 91 1003.0
20191019102841 46 276 5.0 7.0 0.00 0.00 0.00 91 1002.5
20191019101842 47 265 3.0 5.0 0.00 0.00 0.00 91 1002.4
20191019100842 47 271 3.0 7.0 0.00 0.00 0.00 91 1002.2
20191019095842 47 282 5.0 6.0 0.00 0.00 0.00 91 1002.2
20191019094841 47 294 3.0 7.0 0.00 0.00 0.00 91 1002.2
20191019093841 47 288 6.0 8.0 0.00 0.00 0.00 91 1002.3
20191019092844 47 266 6.0 12.0 0.00 0.00 0.00 92 1002.4
20191019091842 47 291 7.0 10.0 0.00 0.00 0.00 91 1002.4
20191019090842 47 290 6.0 9.0 0.00 0.00 0.00 91 1002.0
20191019085841 47 293 6.0 10.0 0.00 0.00 0.00 91 1002.1
20191019084841 47 296 8.0 12.0 0.00 0.00 0.00 91 1001.8
20191019083841 47 296 6.0 9.0 0.00 0.00 0.00 90 1001.7
20191019082842 47 306 8.0 12.0 0.00 0.00 0.00 89 1001.8
20191019081841 48 289 7.0 10.0 0.00 0.00 0.00 89 1001.9
20191019080842 48 292 6.0 12.0 0.00 0.00 0.00 88 1001.8
20191019075841 49 293 7.0 14.0 0.00 0.00 0.00 87 1001.9
20191019074841 49 288 8.0 14.0 0.00 0.00 0.00 86 1001.9
20191019073841 50 282 9.0 12.0 0.00 0.00 0.00 84 1001.5
20191019072841 50 271 7.0 9.0 0.00 0.00 0.00 82 1001.4
20191019071841 51 245 6.0 8.0 0.00 0.00 0.00 80 1001.2
20191019070843 51 240 6.0 8.0 0.00 0.00 0.00 79 1001.1